Time;durP1;ratioP1;P1;durP2;ratioP2;P2;SDS_P1;SDS_P2;PMS_P1;PMS_P2;Temp;Humidity;BMP_temperature;BMP_pressure;BME280_temperature;BME280_humidity;BME280_pressure;Samples;Min_cycle;Max_cycle;Signal;HPM_P1;HPM_P2
2022/07/04 00:00:50;;;;;;;8.75;6.70;;;16.90;99.90;;;;;;5096067;28;20487;-90
2022/07/04 00:03:16;;;;;;;8.30;6.88;;;16.90;99.90;;;;;;5077075;28;20412;-88
2022/07/04 00:05:41;;;;;;;8.60;6.70;;;16.90;99.90;;;;;;5080998;28;20052;-83
2022/07/04 00:08:07;;;;;;;7.82;6.97;;;16.80;99.90;;;;;;5113803;28;20388;-84
2022/07/04 00:10:34;;;;;;;8.15;6.90;;;16.80;99.90;;;;;;5094820;28;20062;-90
2022/07/04 00:13:00;;;;;;;8.07;7.00;;;16.90;99.90;;;;;;5085445;28;20036;-84
2022/07/04 00:15:26;;;;;;;8.02;7.07;;;16.90;99.90;;;;;;5054857;28;20020;-84
2022/07/04 00:17:52;;;;;;;7.32;6.47;;;16.80;99.90;;;;;;5055736;28;20488;-89
2022/07/04 00:20:18;;;;;;;8.30;7.03;;;16.70;99.90;;;;;;5073169;28;20028;-89
2022/07/04 00:22:44;;;;;;;7.13;6.53;;;16.60;99.90;;;;;;5055531;28;20526;-84
2022/07/04 00:25:10;;;;;;;9.35;6.10;;;16.60;99.90;;;;;;5072868;28;20035;-90
2022/07/04 00:27:36;;;;;;;7.28;6.55;;;16.60;99.90;;;;;;5072790;28;20028;-89
2022/07/04 00:30:04;;;;;;;8.73;7.85;;;16.60;99.90;;;;;;5072674;28;20029;-84
2022/07/04 00:32:30;;;;;;;7.43;6.72;;;16.60;99.90;;;;;;5055263;28;20039;-84
2022/07/04 00:34:56;;;;;;;8.13;6.70;;;16.60;99.90;;;;;;5072857;28;20024;-84
2022/07/04 00:37:21;;;;;;;7.00;6.35;;;16.60;99.90;;;;;;5072935;28;20017;-85
2022/07/04 00:39:47;;;;;;;8.23;6.53;;;16.70;99.90;;;;;;5054284;28;20024;-85
2022/07/04 00:42:13;;;;;;;9.48;6.60;;;16.70;99.90;;;;;;5073106;28;20027;-84
2022/07/04 00:44:39;;;;;;;7.22;6.40;;;16.70;99.90;;;;;;5072728;28;20031;-84
2022/07/04 00:47:06;;;;;;;8.60;6.88;;;16.70;99.90;;;;;;5054399;28;20048;-84
2022/07/04 00:49:33;;;;;;;8.30;6.90;;;16.70;99.90;;;;;;5072990;28;20074;-84
2022/07/04 00:52:00;;;;;;;8.18;6.40;;;16.70;99.90;;;;;;5071508;28;20043;-89
2022/07/04 00:54:28;;;;;;;8.48;7.05;;;16.60;99.90;;;;;;5055759;28;20027;-84
2022/07/04 00:56:55;;;;;;;7.45;6.75;;;16.70;99.90;;;;;;5077149;28;20466;-90
2022/07/04 00:59:22;;;;;;;8.43;7.53;;;16.60;99.90;;;;;;5076413;28;20393;-84
2022/07/04 01:01:49;;;;;;;6.95;6.25;;;16.60;99.90;;;;;;5083955;28;20078;-89
2022/07/04 01:04:15;;;;;;;8.52;7.13;;;16.50;99.90;;;;;;5096792;28;20465;-83
2022/07/04 01:06:41;;;;;;;6.95;6.25;;;16.50;99.90;;;;;;5111096;28;20080;-84
2022/07/04 01:09:07;;;;;;;8.95;7.70;;;16.50;99.90;;;;;;5116399;28;20422;-89
2022/07/04 01:11:33;;;;;;;9.45;7.45;;;16.50;99.90;;;;;;5098694;28;20054;-85
2022/07/04 01:13:59;;;;;;;7.82;7.13;;;16.40;99.90;;;;;;5117183;28;20016;-85
2022/07/04 01:16:26;;;;;;;8.52;6.97;;;16.40;99.90;;;;;;5116825;28;20020;-84
2022/07/04 01:18:53;;;;;;;8.35;7.22;;;16.40;99.90;;;;;;5116529;28;20389;-90
2022/07/04 01:21:20;;;;;;;8.10;7.30;;;16.30;99.90;;;;;;5098258;28;20058;-84
2022/07/04 01:23:46;;;;;;;7.97;7.13;;;16.30;99.90;;;;;;5098600;28;20027;-89
2022/07/04 01:26:11;;;;;;;7.22;6.47;;;16.30;99.90;;;;;;5098230;28;20023;-85
2022/07/04 01:28:37;;;;;;;9.18;7.75;;;16.20;99.90;;;;;;5098576;28;20027;-85
2022/07/04 01:31:04;;;;;;;7.82;7.03;;;16.30;99.90;;;;;;5116576;28;20031;-84
2022/07/04 01:33:30;;;;;;;9.20;7.88;;;16.20;99.90;;;;;;5116763;28;20036;-84
2022/07/04 01:35:56;;;;;;;9.90;7.30;;;16.20;99.90;;;;;;5116644;28;20377;-90
2022/07/04 01:38:22;;;;;;;7.82;7.05;;;16.10;99.90;;;;;;5116521;28;20024;-84
2022/07/04 01:40:48;;;;;;;9.32;7.75;;;16.10;99.90;;;;;;5116718;28;20456;-83
2022/07/04 01:43:13;;;;;;;8.20;7.40;;;16.10;99.90;;;;;;5097966;28;20022;-85
2022/07/04 01:45:40;;;;;;;7.40;6.60;;;16.10;99.90;;;;;;5116541;28;20081;-89
2022/07/04 01:48:09;;;;;;;11.15;7.90;;;16.00;99.90;;;;;;5098242;28;20037;-89
2022/07/04 01:50:35;;;;;;;8.20;7.07;;;16.10;99.90;;;;;;5116542;28;20027;-84
2022/07/04 01:53:02;;;;;;;7.93;7.13;;;16.00;99.90;;;;;;5116376;28;20114;-87
2022/07/04 01:55:28;;;;;;;10.20;6.95;;;16.00;99.90;;;;;;5116014;28;20034;-84
2022/07/04 01:57:54;;;;;;;7.45;6.70;;;16.00;99.90;;;;;;5097995;28;20051;-89
2022/07/04 02:03:04;;;;;;;9.32;7.43;;;16.00;99.90;;;;;;5097516;28;20039;-90
2022/07/04 02:05:30;;;;;;;8.93;7.97;;;16.00;99.90;;;;;;5100385;28;20102;-90
2022/07/04 02:07:56;;;;;;;10.52;7.80;;;16.00;99.90;;;;;;5115199;28;20121;-84
2022/07/04 02:10:22;;;;;;;9.15;8.25;;;15.90;99.90;;;;;;5115662;28;20587;-89
2022/07/04 02:13:03;;;;;;;10.75;8.00;;;15.80;99.90;;;;;;5097959;28;20126;-89
2022/07/04 02:15:36;;;;;;;9.80;7.18;;;15.80;99.90;;;;;;5097501;28;20056;-89
2022/07/04 02:18:06;;;;;;;;;;;15.80;99.90;;;;;;5116311;28;20034;-84
2022/07/04 02:20:32;;;;;;;8.38;6.93;;;15.80;99.90;;;;;;5097439;28;19959;-89
2022/07/04 02:22:58;;;;;;;9.65;7.60;;;15.80;99.90;;;;;;5115585;28;20024;-89
2022/07/04 02:25:24;;;;;;;9.35;7.57;;;15.70;99.90;;;;;;5097662;28;20172;-84
2022/07/04 02:27:50;;;;;;;8.05;7.25;;;15.70;99.90;;;;;;5097626;28;20023;-89
2022/07/04 02:30:16;;;;;;;7.38;6.68;;;15.70;99.90;;;;;;5097924;28;20427;-84
2022/07/04 02:32:42;;;;;;;10.30;7.78;;;15.70;99.90;;;;;;5097604;28;20427;-84
2022/07/04 02:35:09;;;;;;;8.18;7.45;;;15.70;99.90;;;;;;5115758;28;20031;-83
2022/07/04 02:37:35;;;;;;;9.48;8.07;;;15.70;99.90;;;;;;5097231;28;20023;-90
2022/07/04 02:40:02;;;;;;;11.85;8.65;;;15.70;99.90;;;;;;5097292;28;20030;-84
2022/07/04 02:42:32;;;;;;;8.43;7.63;;;15.70;99.90;;;;;;5097316;28;20031;-83
2022/07/04 02:44:58;;;;;;;8.73;7.82;;;15.70;99.90;;;;;;5097250;28;20016;-90
2022/07/04 02:47:24;;;;;;;9.20;7.10;;;15.60;99.90;;;;;;5097011;28;20106;-84
2022/07/04 02:49:50;;;;;;;8.52;7.68;;;15.60;99.90;;;;;;5096749;28;20535;-83
2022/07/04 02:52:16;;;;;;;9.13;7.85;;;15.60;99.90;;;;;;5114978;28;20090;-85
2022/07/04 02:54:42;;;;;;;10.80;9.35;;;15.60;99.90;;;;;;5096918;28;20023;-84
2022/07/04 02:57:08;;;;;;;9.35;8.45;;;15.60;99.90;;;;;;5097330;28;20072;-84
2022/07/04 02:59:34;;;;;;;15.52;8.52;;;15.60;99.90;;;;;;5097036;28;20020;-88
2022/07/04 03:02:00;;;;;;;22.98;8.95;;;15.60;99.90;;;;;;5086820;28;20020;-85
2022/07/04 03:04:26;;;;;;;23.50;8.75;;;15.60;99.90;;;;;;5075919;28;20028;-90
2022/07/04 03:06:52;;;;;;;17.08;8.38;;;15.60;99.90;;;;;;5110893;28;20024;-86
2022/07/04 03:09:18;;;;;;;15.77;9.00;;;15.60;99.90;;;;;;5095770;28;20452;-88
2022/07/04 03:11:44;;;;;;;14.52;8.18;;;15.60;99.90;;;;;;5113974;28;20204;-84
2022/07/04 03:14:10;;;;;;;8.65;6.72;;;15.60;99.90;;;;;;5114709;28;20027;-84
2022/07/04 03:16:36;;;;;;;8.40;7.05;;;15.60;99.90;;;;;;5096862;28;20028;-84
2022/07/04 03:19:01;;;;;;;11.50;8.45;;;15.60;99.90;;;;;;5114338;28;20020;-83
2022/07/04 03:21:27;;;;;;;9.38;8.18;;;15.60;99.90;;;;;;5114430;28;20091;-84
2022/07/04 03:23:59;;;;;;;9.95;7.88;;;15.60;99.90;;;;;;5096372;28;20023;-89
2022/07/04 03:26:25;;;;;;;10.32;7.93;;;15.70;99.90;;;;;;5114301;28;20015;-89
2022/07/04 03:28:52;;;;;;;8.20;7.50;;;15.80;99.90;;;;;;5114376;28;20409;-89
2022/07/04 03:31:17;;;;;;;8.38;6.22;;;15.90;99.90;;;;;;5096001;28;20533;-84
2022/07/04 03:33:43;;;;;;;12.27;6.82;;;16.10;99.90;;;;;;5114289;28;20103;-89
2022/07/04 03:36:09;;;;;;;9.80;6.97;;;16.30;99.90;;;;;;5096412;28;20130;-88
2022/07/04 03:38:35;;;;;;;9.63;6.38;;;16.50;99.90;;;;;;5114447;28;20519;-89
2022/07/04 03:41:01;;;;;;;10.77;6.90;;;16.80;99.90;;;;;;5114536;28;20016;-84
2022/07/04 03:43:27;;;;;;;7.38;6.30;;;17.00;99.90;;;;;;5114330;28;20047;-89
2022/07/04 03:45:52;;;;;;;7.35;6.68;;;17.20;99.90;;;;;;5095642;28;20110;-88
2022/07/04 03:48:18;;;;;;;8.02;7.18;;;17.50;99.90;;;;;;5114019;28;20020;-85
2022/07/04 03:50:44;;;;;;;6.40;5.85;;;17.80;99.90;;;;;;5095928;28;20381;-83
2022/07/04 03:53:10;;;;;;;6.65;6.03;;;18.00;99.90;;;;;;5095745;28;20035;-90
2022/07/04 03:55:35;;;;;;;7.07;6.43;;;18.20;99.90;;;;;;5114330;28;20521;-90
2022/07/04 03:58:04;;;;;;;5.25;4.68;;;18.30;99.90;;;;;;5113832;28;20473;-86
2022/07/04 04:00:30;;;;;;;5.18;4.78;;;18.40;99.90;;;;;;5113614;28;20027;-89
2022/07/04 04:02:56;;;;;;;5.13;4.70;;;18.70;99.90;;;;;;5096056;28;20043;-89
2022/07/04 04:05:27;;;;;;;6.60;4.78;;;18.80;99.90;;;;;;5097677;28;20027;-84
2022/07/04 04:07:58;;;;;;;5.88;4.65;;;18.80;99.90;;;;;;5113613;28;20027;-90
2022/07/04 04:10:25;;;;;;;5.45;5.00;;;19.00;99.70;;;;;;5094931;28;20084;-84
2022/07/04 04:12:51;;;;;;;5.05;4.60;;;19.00;99.90;;;;;;5095021;28;20057;-84
2022/07/04 04:15:17;;;;;;;7.35;5.72;;;19.10;99.90;;;;;;5113948;28;20031;-84
2022/07/04 04:17:43;;;;;;;5.80;5.30;;;19.20;99.90;;;;;;5113535;28;20026;-89
2022/07/04 04:20:09;;;;;;;7.15;5.97;;;19.30;99.90;;;;;;5095016;28;20068;-89
2022/07/04 04:22:35;;;;;;;7.75;5.70;;;19.50;99.90;;;;;;5095157;28;20024;-89
2022/07/04 04:25:01;;;;;;;5.20;4.60;;;19.70;99.90;;;;;;5095303;28;20026;-84
2022/07/04 04:27:27;;;;;;;6.18;5.25;;;19.80;99.90;;;;;;5113688;28;20423;-90
2022/07/04 04:29:52;;;;;;;5.93;5.32;;;19.80;99.90;;;;;;5094258;28;20015;-89
2022/07/04 04:32:18;;;;;;;6.40;5.78;;;19.90;99.90;;;;;;5113157;28;20043;-84
2022/07/04 04:34:44;;;;;;;8.07;6.22;;;20.00;99.90;;;;;;5094609;28;20107;-84
2022/07/04 04:37:10;;;;;;;7.80;6.07;;;20.10;99.90;;;;;;5078458;28;20127;-88
2022/07/04 04:39:36;;;;;;;6.28;5.68;;;20.20;99.90;;;;;;5095069;28;20055;-90
2022/07/04 04:42:02;;;;;;;7.93;6.75;;;20.30;99.90;;;;;;5078885;28;20465;-88
2022/07/04 04:44:28;;;;;;;6.15;5.18;;;20.40;99.90;;;;;;5112996;28;20030;-84
2022/07/04 04:46:53;;;;;;;7.88;5.82;;;20.60;99.90;;;;;;5113499;28;20024;-87
2022/07/04 04:49:19;;;;;;;7.35;5.40;;;20.60;99.90;;;;;;5113133;28;20486;-90
2022/07/04 04:51:45;;;;;;;7.97;6.20;;;20.70;99.90;;;;;;5075686;28;20126;-85
2022/07/04 04:54:11;;;;;;;6.28;5.55;;;20.70;99.90;;;;;;5092707;28;20389;-84
2022/07/04 04:56:37;;;;;;;6.57;5.32;;;20.70;99.90;;;;;;5074477;28;20036;-84
2022/07/04 04:59:03;;;;;;;6.90;6.22;;;20.80;99.90;;;;;;5074030;28;20069;-84
2022/07/04 05:01:29;;;;;;;7.05;6.38;;;20.90;99.90;;;;;;5092487;28;20072;-85
2022/07/04 05:03:59;;;;;;;7.00;6.35;;;20.90;99.90;;;;;;5088297;28;20351;-84
2022/07/04 05:06:25;;;;;;;14.27;6.45;;;21.00;99.90;;;;;;5086910;28;20040;-90
2022/07/04 05:08:50;;;;;;;7.35;6.35;;;21.00;99.90;;;;;;5111993;28;20538;-85
2022/07/04 05:11:16;;;;;;;6.95;6.22;;;21.10;99.90;;;;;;5094703;28;20027;-87
2022/07/04 05:13:42;;;;;;;9.63;6.57;;;21.10;99.90;;;;;;5079216;28;20089;-84
2022/07/04 05:16:08;;;;;;;7.13;6.43;;;21.10;99.90;;;;;;5073105;28;20033;-89
2022/07/04 05:18:34;;;;;;;7.05;6.35;;;21.10;99.90;;;;;;5059217;28;20058;-88
2022/07/04 05:21:06;;;;;;;7.93;6.78;;;21.10;99.90;;;;;;5111968;28;20035;-84
2022/07/04 05:23:32;;;;;;;7.15;6.53;;;21.10;99.90;;;;;;5110346;28;20111;-88
2022/07/04 05:25:58;;;;;;;7.47;6.70;;;21.00;99.90;;;;;;5101109;28;20043;-84
2022/07/04 05:28:24;;;;;;;7.10;6.40;;;21.00;99.90;;;;;;5109764;28;20026;-89
2022/07/04 05:30:50;;;;;;;7.72;6.45;;;21.00;99.90;;;;;;5064617;28;20390;-84
2022/07/04 05:33:16;;;;;;;8.25;6.78;;;21.10;99.90;;;;;;5071866;28;20063;-89
2022/07/04 05:35:42;;;;;;;6.75;6.15;;;21.10;99.90;;;;;;5071181;28;20044;-84
2022/07/04 05:38:07;;;;;;;9.07;7.30;;;21.20;99.90;;;;;;5071044;28;20025;-85
2022/07/04 05:40:33;;;;;;;14.50;7.10;;;21.30;99.90;;;;;;5054603;28;20024;-84
2022/07/04 05:42:59;;;;;;;7.43;6.72;;;21.40;99.50;;;;;;5058190;28;20023;-85
2022/07/04 05:45:25;;;;;;;7.38;6.68;;;21.30;99.40;;;;;;5058142;28;20021;-89
2022/07/04 05:47:51;;;;;;;7.03;6.32;;;21.50;99.90;;;;;;5076172;28;20025;-88
2022/07/04 05:50:16;;;;;;;7.25;6.63;;;21.60;99.90;;;;;;5076004;28;20042;-89
2022/07/04 05:52:42;;;;;;;7.90;7.03;;;21.60;99.90;;;;;;5075669;28;20529;-85
2022/07/04 05:55:09;;;;;;;7.75;6.32;;;21.80;99.50;;;;;;5056325;28;20033;-84
2022/07/04 05:57:34;;;;;;;7.78;6.97;;;21.90;96.40;;;;;;5057217;28;20025;-89
2022/07/04 06:00:01;;;;;;;7.97;7.18;;;22.10;95.50;;;;;;5075372;28;20078;-89
2022/07/04 06:02:27;;;;;;;7.97;7.18;;;22.10;92.00;;;;;;5071678;28;20373;-84
2022/07/04 06:04:53;;;;;;;7.25;6.57;;;22.10;90.80;;;;;;5077401;28;20025;-84
2022/07/04 06:07:19;;;;;;;9.13;7.25;;;22.20;92.00;;;;;;5077577;28;20115;-88
2022/07/04 06:09:45;;;;;;;9.57;7.15;;;22.40;89.40;;;;;;5095619;28;20044;-84
2022/07/04 06:12:10;;;;;;;7.80;6.93;;;22.50;91.90;;;;;;5077202;28;20450;-85
2022/07/04 06:14:36;;;;;;;8.32;7.43;;;22.60;87.20;;;;;;5077613;28;20016;-85
2022/07/04 06:17:02;;;;;;;7.55;6.95;;;22.60;83.60;;;;;;5077075;28;20121;-88
2022/07/04 06:19:28;;;;;;;8.63;7.55;;;22.80;85.10;;;;;;5077559;28;20024;-84
2022/07/04 06:21:54;;;;;;;8.90;7.35;;;22.90;84.00;;;;;;5077091;28;20020;-85
2022/07/04 06:24:20;;;;;;;10.73;7.70;;;23.10;81.10;;;;;;5095641;28;20066;-84
2022/07/04 06:26:46;;;;;;;9.63;7.97;;;23.20;82.40;;;;;;5095350;28;20501;-88
2022/07/04 06:29:12;;;;;;;7.78;6.97;;;23.30;82.30;;;;;;5077542;28;20016;-89
2022/07/04 06:31:38;;;;;;;8.45;7.65;;;23.40;79.40;;;;;;5095371;28;20419;-84
2022/07/04 06:36:48;;;;;;;12.75;7.90;;;23.50;77.40;;;;;;5095558;28;20038;-89
2022/07/04 06:39:13;;;;;;;10.77;7.80;;;23.70;76.40;;;;;;5077263;28;20028;-88
2022/07/04 06:41:39;;;;;;;8.55;7.75;;;23.70;76.60;;;;;;5094789;28;20081;-85
2022/07/04 06:44:05;;;;;;;9.57;7.88;;;23.80;76.40;;;;;;5076854;28;20028;-84
2022/07/04 06:46:31;;;;;;;8.52;7.40;;;23.90;74.60;;;;;;5094940;28;20020;-88
2022/07/04 06:48:57;;;;;;;10.52;7.82;;;24.10;75.50;;;;;;5095156;28;20024;-89
2022/07/04 06:51:23;;;;;;;8.90;8.00;;;24.30;74.60;;;;;;5095068;28;20020;-87
2022/07/04 06:53:50;;;;;;;8.68;7.45;;;24.20;72.40;;;;;;5094241;28;20036;-89
2022/07/04 06:56:16;;;;;;;7.95;7.15;;;24.50;73.20;;;;;;5094771;28;20055;-89
2022/07/04 06:58:42;;;;;;;9.75;8.00;;;24.60;72.60;;;;;;5076770;28;20032;-87
2022/07/04 07:01:08;;;;;;;9.07;8.25;;;24.80;73.90;;;;;;5075964;28;20458;-85
2022/07/04 07:03:34;;;;;;;9.07;8.13;;;24.80;72.60;;;;;;5076706;28;20024;-88
2022/07/04 07:06:01;;;;;;;10.30;7.65;;;25.00;69.90;;;;;;5094551;28;20028;-84
2022/07/04 07:08:27;;;;;;;8.80;8.00;;;25.10;71.70;;;;;;5093578;28;20020;-85
2022/07/04 07:10:53;;;;;;;8.30;7.47;;;25.10;69.50;;;;;;5094396;28;20459;-84
2022/07/04 07:13:19;;;;;;;8.25;7.28;;;25.10;66.50;;;;;;5076005;28;20028;-84
2022/07/04 07:15:45;;;;;;;12.48;8.13;;;25.20;66.30;;;;;;5075846;28;20077;-85
2022/07/04 07:18:11;;;;;;;10.23;7.32;;;25.30;68.50;;;;;;5076114;28;20025;-88
2022/07/04 07:20:37;;;;;;;7.78;6.97;;;25.50;66.50;;;;;;5094136;28;20082;-89
2022/07/04 07:23:04;;;;;;;10.00;7.85;;;25.70;65.10;;;;;;5094109;28;20016;-89
2022/07/04 07:25:30;;;;;;;8.00;7.20;;;25.70;64.70;;;;;;5076106;28;20060;-84
2022/07/04 07:27:56;;;;;;;8.20;7.50;;;25.70;64.50;;;;;;5075829;28;20020;-85
2022/07/04 07:30:22;;;;;;;7.30;6.68;;;25.90;65.10;;;;;;5094423;28;20020;-89
2022/07/04 07:32:48;;;;;;;7.97;6.18;;;25.90;59.30;;;;;;5094181;28;20036;-84
2022/07/04 07:35:14;;;;;;;5.22;4.72;;;26.00;59.10;;;;;;5094017;28;20028;-84
2022/07/04 07:37:41;;;;;;;6.75;6.05;;;26.10;57.80;;;;;;5075557;28;20024;-88
2022/07/04 07:40:08;;;;;;;6.25;5.57;;;26.10;56.30;;;;;;5093713;28;20028;-89
2022/07/04 07:42:33;;;;;;;5.43;4.88;;;26.40;57.40;;;;;;5093729;28;20028;-85
2022/07/04 07:44:59;;;;;;;6.40;5.68;;;26.50;55.80;;;;;;5075887;28;20104;-89
2022/07/04 07:47:25;;;;;;;5.53;5.03;;;26.70;56.70;;;;;;5093943;28;20036;-87
2022/07/04 07:49:51;;;;;;;6.03;5.43;;;26.80;55.10;;;;;;5075981;28;20103;-84
2022/07/04 07:52:17;;;;;;;6.82;5.10;;;26.80;53.90;;;;;;5075626;28;20374;-85
2022/07/04 07:54:43;;;;;;;6.57;5.15;;;26.90;53.90;;;;;;5075552;28;20023;-84
2022/07/04 07:57:09;;;;;;;6.90;4.97;;;27.00;54.50;;;;;;5093215;28;20032;-88
2022/07/04 07:59:35;;;;;;;5.38;4.90;;;26.80;54.40;;;;;;5075364;28;20024;-84
2022/07/04 08:02:01;;;;;;;5.30;4.80;;;26.80;54.00;;;;;;5075190;28;20025;-89
2022/07/04 08:04:37;;;;;;;5.53;4.97;;;27.20;54.90;;;;;;5074701;28;20468;-84
2022/07/04 08:07:11;;;;;;;7.43;4.30;;;27.20;53.50;;;;;;5075285;28;20016;-89
2022/07/04 08:09:38;;;;;;;4.55;4.15;;;27.30;52.20;;;;;;5093273;28;20052;-85
2022/07/04 08:12:05;;;;;;;4.75;4.38;;;27.50;52.00;;;;;;5075378;28;20393;-89
2022/07/04 08:14:33;;;;;;;2.90;2.70;;;27.40;52.00;;;;;;5093245;28;20022;-84
2022/07/04 08:16:59;;;;;;;4.20;3.90;;;27.10;48.90;;;;;;5075126;28;20106;-89
2022/07/04 08:19:25;;;;;;;6.05;4.82;;;26.90;49.20;;;;;;5075592;28;20119;-84
2022/07/04 08:21:52;;;;;;;5.10;4.70;;;27.00;51.20;;;;;;5075198;28;20024;-84
2022/07/04 08:24:18;;;;;;;4.13;3.83;;;27.30;52.60;;;;;;5074977;28;20035;-84
2022/07/04 08:26:45;;;;;;;4.85;4.45;;;27.50;51.50;;;;;;5074471;28;20016;-84
2022/07/04 08:29:20;;;;;;;6.72;4.60;;;27.80;50.00;;;;;;5093164;28;20020;-89
2022/07/04 08:31:47;;;;;;;6.93;5.90;;;27.80;50.20;;;;;;5074732;28;20090;-84
2022/07/04 08:34:13;;;;;;;7.90;6.18;;;28.00;50.90;;;;;;5074758;28;20103;-89
2022/07/04 08:36:39;;;;;;;6.75;5.10;;;28.10;50.90;;;;;;5075062;28;20030;-85
2022/07/04 08:39:05;;;;;;;8.40;6.28;;;28.00;48.50;;;;;;5093459;28;20062;-84
2022/07/04 08:41:38;;;;;;;5.68;4.97;;;27.90;48.70;;;;;;5074777;28;20070;-87
2022/07/04 08:44:06;;;;;;;8.75;7.18;;;28.00;48.80;;;;;;5074765;28;20027;-84
2022/07/04 08:46:33;;;;;;;10.10;7.95;;;28.10;48.50;;;;;;5092877;28;20048;-84
2022/07/04 08:49:03;;;;;;;11.18;7.88;;;28.10;51.30;;;;;;5092978;28;20073;-88
2022/07/04 08:51:50;;;;;;;11.35;8.00;;;28.40;50.60;;;;;;5074429;28;20019;-84
2022/07/04 08:59:49;;;;;;;24.08;11.23;;;28.00;50.90;;;;;;5093051;28;20386;-89
2022/07/04 09:02:18;;;;;;;26.73;11.77;;;28.20;52.90;;;;;;5092676;28;20017;-89
2022/07/04 09:04:44;;;;;;;23.08;11.85;;;28.20;52.10;;;;;;5058986;28;20438;-84
2022/07/04 09:07:13;;;;;;;16.52;9.98;;;28.20;50.90;;;;;;5092493;28;20504;-85
2022/07/04 09:09:42;;;;;;;15.95;9.90;;;28.40;50.90;;;;;;5092417;28;20048;-89
2022/07/04 09:12:09;;;;;;;12.57;8.65;;;28.50;51.30;;;;;;5074723;28;20485;-85
2022/07/04 09:14:34;;;;;;;14.50;8.52;;;28.70;50.70;;;;;;5092816;28;20534;-85
2022/07/04 09:17:00;;;;;;;12.60;8.05;;;28.80;50.10;;;;;;5077615;28;20020;-88
2022/07/04 09:19:26;;;;;;;11.50;7.93;;;28.90;48.90;;;;;;5096773;28;20098;-89
2022/07/04 09:21:52;;;;;;;11.27;7.43;;;29.00;49.40;;;;;;5078688;28;20035;-84
2022/07/04 09:24:43;;;;;;;28.55;23.17;;;28.80;48.40;;;;;;5096668;28;20428;-89
2022/07/04 09:27:09;;;;;;;36.35;30.13;;;28.70;49.50;;;;;;5077944;28;20030;-84
2022/07/04 09:29:52;;;;;;;22.20;19.88;;;28.70;48.50;;;;;;5078286;28;20102;-84
2022/07/04 09:32:44;;;;;;;14.55;10.75;;;28.90;49.50;;;;;;5077948;28;20056;-88
2022/07/04 09:35:13;;;;;;;9.90;6.80;;;29.10;49.30;;;;;;5077359;28;20028;-89
2022/07/04 09:37:47;;;;;;;9.65;6.70;;;29.30;48.90;;;;;;5096358;28;20027;-88
2022/07/04 09:41:24;;;;;;;11.38;7.47;;;29.20;47.60;;;;;;5078386;28;20093;-87
2022/07/04 09:43:23;;;;;;;12.95;6.68;;;29.20;47.00;;;;;;5095989;28;20020;-84
2022/07/04 09:45:57;;;;;;;9.20;7.80;;;29.40;47.50;;;;;;5095703;28;20117;-89
2022/07/04 09:48:24;;;;;;;10.13;6.35;;;29.50;47.50;;;;;;5078210;28;20022;-84
2022/07/04 09:50:51;;;;;;;11.38;7.18;;;29.40;46.80;;;;;;5077986;28;20043;-89
2022/07/04 09:53:17;;;;;;;7.28;6.47;;;29.30;46.80;;;;;;5077879;28;20032;-88
2022/07/04 09:55:45;;;;;;;10.05;6.40;;;29.10;45.80;;;;;;5075702;28;20028;-88
2022/07/04 09:58:14;;;;;;;5.45;4.75;;;29.20;45.50;;;;;;5085421;28;20373;-84
2022/07/04 10:00:45;;;;;;;6.63;5.93;;;29.30;44.80;;;;;;5063280;28;20029;-88
2022/07/04 10:03:29;;;;;;;8.57;5.53;;;29.40;44.20;;;;;;5095829;28;20039;-84
2022/07/04 10:06:18;;;;;;;10.38;5.85;;;29.50;45.90;;;;;;5095645;28;20044;-84
2022/07/04 10:08:44;;;;;;;13.70;10.57;;;29.60;45.80;;;;;;5069161;28;20020;-84
2022/07/04 10:11:11;;;;;;;9.65;6.40;;;29.60;46.90;;;;;;5066830;28;20024;-85
2022/07/04 10:13:38;;;;;;;9.60;6.40;;;29.60;46.50;;;;;;5068819;28;20035;-88
2022/07/04 10:16:04;;;;;;;8.30;5.93;;;29.70;46.30;;;;;;5085164;28;20023;-89
2022/07/04 10:18:30;;;;;;;7.72;5.93;;;29.80;46.10;;;;;;5084484;28;20020;-84
2022/07/04 10:20:57;;;;;;;6.88;6.25;;;30.00;47.00;;;;;;5076952;28;20035;-88
2022/07/04 10:23:30;;;;;;;7.13;6.43;;;29.90;45.70;;;;;;5077159;28;20512;-84
2022/07/04 10:25:56;;;;;;;9.82;6.85;;;30.10;45.80;;;;;;5076929;28;20020;-84
2022/07/04 10:28:22;;;;;;;8.43;6.50;;;30.10;45.50;;;;;;5094215;28;20028;-84
2022/07/04 10:30:52;;;;;;;11.25;7.90;;;30.00;45.80;;;;;;5095086;28;20119;-87
2022/07/04 10:33:24;;;;;;;10.18;7.40;;;29.90;45.30;;;;;;5095187;28;20028;-88
2022/07/04 10:35:51;;;;;;;9.20;7.43;;;29.80;46.40;;;;;;5077136;28;20493;-88
2022/07/04 10:38:18;;;;;;;8.52;6.45;;;29.80;46.20;;;;;;5076760;28;20028;-89
2022/07/04 10:40:56;;;;;;;9.57;6.35;;;30.00;46.60;;;;;;5076864;28;20023;-84
2022/07/04 10:43:31;;;;;;;6.60;5.80;;;29.80;46.50;;;;;;5095117;28;20024;-84
2022/07/04 10:46:16;;;;;;;7.72;6.45;;;29.50;45.30;;;;;;5076915;28;20105;-89
2022/07/04 10:48:53;;;;;;;9.50;7.00;;;29.60;45.70;;;;;;5094358;28;20080;-83
2022/07/04 10:51:42;;;;;;;10.40;7.05;;;29.70;46.80;;;;;;5094305;28;20359;-88
2022/07/04 10:54:13;;;;;;;38.42;27.42;;;29.60;47.20;;;;;;5074410;28;20064;-88
2022/07/04 10:56:40;;;;;;;12.00;8.43;;;29.70;48.20;;;;;;5075849;28;20323;-88
2022/07/04 10:59:16;;;;;;;16.70;10.77;;;30.00;48.30;;;;;;5076448;28;20115;-88
2022/07/04 11:02:06;;;;;;;14.68;9.88;;;30.00;47.00;;;;;;5094042;28;20031;-83
2022/07/04 11:04:52;;;;;;;15.45;8.77;;;30.10;47.30;;;;;;5094724;28;20024;-89
2022/07/04 11:07:37;;;;;;;12.80;8.02;;;30.50;46.80;;;;;;5055905;28;20119;-89
2022/07/04 11:10:21;;;;;;;9.85;7.72;;;30.50;46.10;;;;;;5073553;28;20131;-89
2022/07/04 11:12:55;;;;;;;15.90;8.02;;;30.60;45.90;;;;;;5074616;28;20033;-84
2022/07/04 11:15:27;;;;;;;7.88;7.07;;;30.70;46.00;;;;;;5056604;28;20098;-89
2022/07/04 11:17:55;;;;;;;11.23;7.72;;;30.20;45.70;;;;;;5074454;28;20031;-88
2022/07/04 11:20:23;;;;;;;7.97;7.00;;;29.80;46.60;;;;;;5056546;28;20036;-88
2022/07/04 11:22:49;;;;;;;10.27;7.90;;;29.60;46.90;;;;;;5056158;28;20024;-88
2022/07/04 11:25:15;;;;;;;9.90;7.28;;;29.40;47.70;;;;;;5074124;28;20029;-83
2022/07/04 11:27:41;;;;;;;10.48;7.78;;;29.20;48.10;;;;;;5055938;28;20024;-85
2022/07/04 11:30:08;;;;;;;11.35;7.43;;;29.00;48.30;;;;;;5073318;28;20136;-89
2022/07/04 11:32:36;;;;;;;7.63;6.45;;;29.20;48.70;;;;;;5073441;28;20036;-84
2022/07/04 11:35:04;;;;;;;8.13;6.63;;;29.30;48.00;;;;;;5055889;28;20013;-88
2022/07/04 11:37:31;;;;;;;8.40;7.32;;;29.60;48.10;;;;;;5055706;28;20137;-84
2022/07/04 11:45:02;;;;;;;9.82;6.85;;;30.20;49.40;;;;;;5073471;28;20031;-89
2022/07/04 11:45:53;;;;;;;7.95;6.80;;;30.90;47.00;;;;;;5073268;28;20042;-89
2022/07/04 11:48:23;;;;;;;7.72;6.68;;;30.80;45.90;;;;;;5073251;28;20056;-84
2022/07/04 11:50:48;;;;;;;6.10;5.47;;;30.90;45.30;;;;;;5055539;28;20075;-84
2022/07/04 11:53:15;;;;;;;8.05;5.18;;;30.80;45.10;;;;;;5055577;28;20056;-86
2022/07/04 11:55:58;;;;;;;10.32;7.13;;;30.80;43.80;;;;;;5073379;28;20044;-88
2022/07/04 11:58:23;;;;;;;;;;;30.60;45.70;;;;;;5056010;28;20382;-89
2022/07/04 12:00:49;;;;;;;7.43;6.72;;;30.50;46.20;;;;;;5075783;28;19904;-84
2022/07/04 12:03:15;;;;;;;9.07;7.22;;;30.70;46.80;;;;;;5075661;28;20020;-84
2022/07/04 12:05:43;;;;;;;8.40;6.88;;;30.90;45.90;;;;;;5093067;28;20024;-83
2022/07/04 12:08:09;;;;;;;12.35;7.50;;;31.00;46.10;;;;;;5075320;28;20362;-89
2022/07/04 12:10:36;;;;;;;12.20;8.77;;;31.20;46.20;;;;;;5071765;28;20138;-88
2022/07/04 12:13:07;;;;;;;10.00;7.13;;;31.40;45.50;;;;;;5071673;28;20505;-84
2022/07/04 12:15:42;;;;;;;6.82;6.07;;;31.40;45.00;;;;;;5071923;28;20052;-88
2022/07/04 12:18:19;;;;;;;7.78;6.28;;;31.30;44.20;;;;;;5073105;28;20070;-89
2022/07/04 12:20:48;;;;;;;6.93;5.70;;;31.40;44.20;;;;;;5071666;28;20062;-89
2022/07/04 12:23:14;;;;;;;6.38;5.78;;;31.20;43.70;;;;;;5071651;28;20024;-84
2022/07/04 12:25:43;;;;;;;11.52;7.97;;;30.90;43.40;;;;;;5073070;28;20032;-89
2022/07/04 12:28:11;;;;;;;8.52;6.68;;;30.90;43.90;;;;;;5071418;28;20016;-84
2022/07/04 12:30:53;;;;;;;4.60;4.00;;;30.80;43.90;;;;;;5072004;28;20024;-88
2022/07/04 12:33:23;;;;;;;4.90;4.03;;;30.80;43.10;;;;;;5071617;28;20075;-84
2022/07/04 12:36:07;;;;;;;4.68;4.13;;;30.70;42.30;;;;;;5072431;28;20032;-83
2022/07/04 12:38:39;;;;;;;5.88;5.07;;;30.70;42.20;;;;;;5071259;28;20541;-90
2022/07/04 12:41:07;;;;;;;4.90;4.50;;;30.60;43.40;;;;;;5072720;28;20047;-84
2022/07/04 12:43:42;;;;;;;5.70;4.70;;;30.70;42.90;;;;;;5071593;28;20394;-89
2022/07/04 12:46:08;;;;;;;4.80;4.40;;;30.80;42.90;;;;;;5071653;28;20547;-84
2022/07/04 12:48:35;;;;;;;4.38;3.90;;;30.90;42.10;;;;;;5071670;28;20478;-84
2022/07/04 12:51:19;;;;;;;5.85;3.80;;;31.00;42.60;;;;;;5075147;28;20031;-83
2022/07/04 12:53:47;;;;;;;5.38;4.50;;;30.90;41.70;;;;;;5078570;28;20033;-84
2022/07/04 12:56:32;;;;;;;6.50;4.10;;;31.00;41.70;;;;;;5079061;28;20107;-84
2022/07/04 12:59:06;;;;;;;4.30;3.15;;;31.10;42.00;;;;;;5079258;28;20444;-89
2022/07/04 13:01:32;;;;;;;5.10;4.60;;;31.20;40.20;;;;;;5078682;28;20020;-85
2022/07/04 13:03:59;;;;;;;4.70;3.78;;;31.30;40.80;;;;;;5078036;28;20024;-88